sensor_id;sensor_type;location;lat;lon;timestamp;P1;durP1;ratioP1;P2;durP2;ratioP2
22814;SDS011;11574;51.058;13.712;2022-12-18T00:04:18;38.23;;;17.37;;
22814;SDS011;11574;51.058;13.712;2022-12-18T00:09:21;50.50;;;17.40;;
22814;SDS011;11574;51.058;13.712;2022-12-18T00:14:25;37.77;;;16.23;;
22814;SDS011;11574;51.058;13.712;2022-12-18T00:19:27;43.37;;;16.17;;
22814;SDS011;11574;51.058;13.712;2022-12-18T00:24:29;37.50;;;15.33;;
22814;SDS011;11574;51.058;13.712;2022-12-18T00:29:33;36.37;;;15.60;;
22814;SDS011;11574;51.058;13.712;2022-12-18T00:34:35;37.33;;;14.90;;
22814;SDS011;11574;51.058;13.712;2022-12-18T00:39:37;30.10;;;14.03;;
22814;SDS011;11574;51.058;13.712;2022-12-18T00:44:41;29.73;;;13.27;;
22814;SDS011;11574;51.058;13.712;2022-12-18T00:49:43;29.80;;;12.53;;
22814;SDS011;11574;51.058;13.712;2022-12-18T00:54:45;35.03;;;13.77;;
22814;SDS011;11574;51.058;13.712;2022-12-18T00:59:49;30.60;;;12.90;;
22814;SDS011;11574;51.058;13.712;2022-12-18T01:04:51;37.67;;;14.00;;
22814;SDS011;11574;51.058;13.712;2022-12-18T01:09:53;33.17;;;14.23;;
22814;SDS011;11574;51.058;13.712;2022-12-18T01:14:57;33.67;;;14.07;;
22814;SDS011;11574;51.058;13.712;2022-12-18T01:19:59;36.20;;;15.63;;
22814;SDS011;11574;51.058;13.712;2022-12-18T01:25:02;32.43;;;14.30;;
22814;SDS011;11574;51.058;13.712;2022-12-18T01:30:07;28.67;;;11.90;;
22814;SDS011;11574;51.058;13.712;2022-12-18T01:35:10;27.03;;;12.60;;
22814;SDS011;11574;51.058;13.712;2022-12-18T01:40:13;26.33;;;12.03;;
22814;SDS011;11574;51.058;13.712;2022-12-18T01:45:27;28.47;;;13.03;;
22814;SDS011;11574;51.058;13.712;2022-12-18T01:50:30;33.23;;;14.47;;
22814;SDS011;11574;51.058;13.712;2022-12-18T01:55:35;31.27;;;13.10;;
22814;SDS011;11574;51.058;13.712;2022-12-18T02:00:40;30.20;;;12.83;;
22814;SDS011;11574;51.058;13.712;2022-12-18T02:05:44;28.10;;;12.13;;
22814;SDS011;11574;51.058;13.712;2022-12-18T02:10:50;29.43;;;11.10;;
22814;SDS011;11574;51.058;13.712;2022-12-18T02:15:59;27.40;;;12.47;;
22814;SDS011;11574;51.058;13.712;2022-12-18T02:21:04;30.80;;;12.10;;
22814;SDS011;11574;51.058;13.712;2022-12-18T02:26:14;27.67;;;11.67;;
22814;SDS011;11574;51.058;13.712;2022-12-18T02:31:17;26.87;;;10.97;;
22814;SDS011;11574;51.058;13.712;2022-12-18T02:36:21;33.57;;;11.80;;
22814;SDS011;11574;51.058;13.712;2022-12-18T02:41:25;29.50;;;12.03;;
22814;SDS011;11574;51.058;13.712;2022-12-18T02:46:29;27.63;;;11.30;;
22814;SDS011;11574;51.058;13.712;2022-12-18T02:51:34;24.67;;;11.43;;
22814;SDS011;11574;51.058;13.712;2022-12-18T02:56:40;33.03;;;11.40;;
22814;SDS011;11574;51.058;13.712;2022-12-18T03:01:46;28.77;;;10.73;;
22814;SDS011;11574;51.058;13.712;2022-12-18T03:06:53;25.30;;;10.43;;
22814;SDS011;11574;51.058;13.712;2022-12-18T03:11:58;23.77;;;11.17;;
22814;SDS011;11574;51.058;13.712;2022-12-18T03:17:22;24.37;;;11.13;;
22814;SDS011;11574;51.058;13.712;2022-12-18T03:22:24;22.03;;;9.27;;
22814;SDS011;11574;51.058;13.712;2022-12-18T03:27:29;19.57;;;9.33;;
22814;SDS011;11574;51.058;13.712;2022-12-18T03:32:36;25.00;;;8.73;;
22814;SDS011;11574;51.058;13.712;2022-12-18T03:37:41;19.63;;;8.77;;
22814;SDS011;11574;51.058;13.712;2022-12-18T03:42:45;17.23;;;8.13;;
22814;SDS011;11574;51.058;13.712;2022-12-18T03:47:52;17.83;;;7.93;;
22814;SDS011;11574;51.058;13.712;2022-12-18T03:53:01;18.30;;;8.00;;
22814;SDS011;11574;51.058;13.712;2022-12-18T03:58:07;24.83;;;8.80;;
22814;SDS011;11574;51.058;13.712;2022-12-18T04:03:11;18.27;;;7.37;;
22814;SDS011;11574;51.058;13.712;2022-12-18T04:08:15;20.03;;;7.67;;
22814;SDS011;11574;51.058;13.712;2022-12-18T04:13:23;23.60;;;8.13;;
22814;SDS011;11574;51.058;13.712;2022-12-18T04:18:25;20.67;;;8.47;;
22814;SDS011;11574;51.058;13.712;2022-12-18T04:23:27;15.20;;;7.97;;
22814;SDS011;11574;51.058;13.712;2022-12-18T04:28:31;21.50;;;9.40;;
22814;SDS011;11574;51.058;13.712;2022-12-18T04:33:33;19.13;;;9.13;;
22814;SDS011;11574;51.058;13.712;2022-12-18T04:38:35;25.27;;;10.10;;
22814;SDS011;11574;51.058;13.712;2022-12-18T04:43:39;25.13;;;9.60;;
22814;SDS011;11574;51.058;13.712;2022-12-18T04:48:41;21.40;;;9.47;;
22814;SDS011;11574;51.058;13.712;2022-12-18T04:53:43;18.77;;;9.53;;
22814;SDS011;11574;51.058;13.712;2022-12-18T04:58:48;15.53;;;7.70;;
22814;SDS011;11574;51.058;13.712;2022-12-18T05:03:50;17.23;;;8.00;;
22814;SDS011;11574;51.058;13.712;2022-12-18T05:08:52;17.00;;;7.50;;
22814;SDS011;11574;51.058;13.712;2022-12-18T05:13:56;18.27;;;7.33;;
22814;SDS011;11574;51.058;13.712;2022-12-18T05:18:58;13.33;;;6.10;;
22814;SDS011;11574;51.058;13.712;2022-12-18T05:24:00;12.47;;;6.17;;
22814;SDS011;11574;51.058;13.712;2022-12-18T05:29:04;12.10;;;5.90;;
22814;SDS011;11574;51.058;13.712;2022-12-18T05:34:06;13.63;;;5.67;;
22814;SDS011;11574;51.058;13.712;2022-12-18T05:39:08;15.93;;;5.87;;
22814;SDS011;11574;51.058;13.712;2022-12-18T05:44:12;14.30;;;6.10;;
22814;SDS011;11574;51.058;13.712;2022-12-18T05:49:14;14.57;;;7.03;;
22814;SDS011;11574;51.058;13.712;2022-12-18T05:54:17;14.07;;;6.83;;
22814;SDS011;11574;51.058;13.712;2022-12-18T05:59:20;21.17;;;7.37;;
22814;SDS011;11574;51.058;13.712;2022-12-18T06:04:22;21.17;;;7.60;;
22814;SDS011;11574;51.058;13.712;2022-12-18T06:09:25;16.40;;;7.87;;
22814;SDS011;11574;51.058;13.712;2022-12-18T06:14:28;17.00;;;7.87;;
22814;SDS011;11574;51.058;13.712;2022-12-18T06:19:31;15.40;;;7.37;;
22814;SDS011;11574;51.058;13.712;2022-12-18T06:24:33;18.13;;;7.97;;
22814;SDS011;11574;51.058;13.712;2022-12-18T06:29:36;19.17;;;6.87;;
22814;SDS011;11574;51.058;13.712;2022-12-18T06:34:38;18.73;;;6.77;;
22814;SDS011;11574;51.058;13.712;2022-12-18T06:39:40;13.80;;;6.57;;
22814;SDS011;11574;51.058;13.712;2022-12-18T06:44:44;14.13;;;6.83;;
22814;SDS011;11574;51.058;13.712;2022-12-18T06:49:46;12.87;;;6.50;;
22814;SDS011;11574;51.058;13.712;2022-12-18T06:54:48;13.13;;;6.40;;
22814;SDS011;11574;51.058;13.712;2022-12-18T06:59:52;13.10;;;6.70;;
22814;SDS011;11574;51.058;13.712;2022-12-18T07:04:54;13.30;;;6.20;;
22814;SDS011;11574;51.058;13.712;2022-12-18T07:09:56;12.47;;;5.83;;
22814;SDS011;11574;51.058;13.712;2022-12-18T07:15:00;13.93;;;6.60;;
22814;SDS011;11574;51.058;13.712;2022-12-18T07:20:03;16.53;;;7.77;;
22814;SDS011;11574;51.058;13.712;2022-12-18T07:25:06;18.00;;;7.37;;
22814;SDS011;11574;51.058;13.712;2022-12-18T07:30:10;15.60;;;6.27;;
22814;SDS011;11574;51.058;13.712;2022-12-18T07:35:13;18.20;;;6.47;;
22814;SDS011;11574;51.058;13.712;2022-12-18T07:40:15;16.47;;;6.27;;
22814;SDS011;11574;51.058;13.712;2022-12-18T07:45:18;16.00;;;6.50;;
22814;SDS011;11574;51.058;13.712;2022-12-18T07:50:21;16.13;;;7.70;;
22814;SDS011;11574;51.058;13.712;2022-12-18T07:55:24;17.77;;;8.13;;
22814;SDS011;11574;51.058;13.712;2022-12-18T08:00:27;16.17;;;6.97;;
22814;SDS011;11574;51.058;13.712;2022-12-18T08:05:29;25.17;;;11.33;;
22814;SDS011;11574;51.058;13.712;2022-12-18T08:10:32;26.73;;;14.73;;
22814;SDS011;11574;51.058;13.712;2022-12-18T08:15:35;24.60;;;14.13;;
22814;SDS011;11574;51.058;13.712;2022-12-18T08:20:37;24.93;;;11.30;;
22814;SDS011;11574;51.058;13.712;2022-12-18T08:25:42;20.53;;;10.57;;
22814;SDS011;11574;51.058;13.712;2022-12-18T08:30:46;21.33;;;10.67;;
22814;SDS011;11574;51.058;13.712;2022-12-18T08:35:48;22.00;;;10.30;;
22814;SDS011;11574;51.058;13.712;2022-12-18T08:40:53;22.13;;;10.03;;
22814;SDS011;11574;51.058;13.712;2022-12-18T08:45:57;20.40;;;9.03;;
22814;SDS011;11574;51.058;13.712;2022-12-18T08:50:59;21.47;;;9.37;;
22814;SDS011;11574;51.058;13.712;2022-12-18T08:56:02;21.60;;;10.43;;
22814;SDS011;11574;51.058;13.712;2022-12-18T09:01:06;21.27;;;11.03;;
22814;SDS011;11574;51.058;13.712;2022-12-18T09:06:09;24.47;;;11.07;;
22814;SDS011;11574;51.058;13.712;2022-12-18T09:11:19;22.27;;;12.03;;
22814;SDS011;11574;51.058;13.712;2022-12-18T09:16:23;21.90;;;12.50;;
22814;SDS011;11574;51.058;13.712;2022-12-18T09:21:26;26.97;;;13.13;;
22814;SDS011;11574;51.058;13.712;2022-12-18T09:26:29;19.53;;;12.60;;
22814;SDS011;11574;51.058;13.712;2022-12-18T09:31:33;23.27;;;14.27;;
22814;SDS011;11574;51.058;13.712;2022-12-18T09:36:35;23.93;;;13.80;;
22814;SDS011;11574;51.058;13.712;2022-12-18T09:41:39;23.57;;;13.23;;
22814;SDS011;11574;51.058;13.712;2022-12-18T09:46:45;26.00;;;14.40;;
22814;SDS011;11574;51.058;13.712;2022-12-18T09:51:49;27.90;;;14.87;;
22814;SDS011;11574;51.058;13.712;2022-12-18T09:56:53;28.93;;;15.50;;
22814;SDS011;11574;51.058;13.712;2022-12-18T10:01:57;31.03;;;15.47;;
22814;SDS011;11574;51.058;13.712;2022-12-18T10:07:00;31.73;;;16.77;;
22814;SDS011;11574;51.058;13.712;2022-12-18T10:12:06;31.17;;;15.47;;
22814;SDS011;11574;51.058;13.712;2022-12-18T10:17:14;33.97;;;16.33;;
22814;SDS011;11574;51.058;13.712;2022-12-18T10:22:26;33.30;;;15.33;;
22814;SDS011;11574;51.058;13.712;2022-12-18T10:27:33;29.50;;;14.20;;
22814;SDS011;11574;51.058;13.712;2022-12-18T10:32:36;34.47;;;14.33;;
22814;SDS011;11574;51.058;13.712;2022-12-18T10:37:38;30.53;;;13.17;;
22814;SDS011;11574;51.058;13.712;2022-12-18T10:43:04;29.70;;;12.97;;
22814;SDS011;11574;51.058;13.712;2022-12-18T10:48:18;32.43;;;14.10;;
22814;SDS011;11574;51.058;13.712;2022-12-18T10:53:22;27.27;;;12.43;;
22814;SDS011;11574;51.058;13.712;2022-12-18T10:58:26;30.00;;;13.23;;
22814;SDS011;11574;51.058;13.712;2022-12-18T11:03:31;31.57;;;13.13;;
22814;SDS011;11574;51.058;13.712;2022-12-18T11:08:35;33.70;;;13.97;;
22814;SDS011;11574;51.058;13.712;2022-12-18T11:13:38;31.57;;;13.40;;
22814;SDS011;11574;51.058;13.712;2022-12-18T11:18:41;34.97;;;16.03;;
22814;SDS011;11574;51.058;13.712;2022-12-18T11:23:46;31.87;;;13.93;;
22814;SDS011;11574;51.058;13.712;2022-12-18T11:28:49;34.13;;;12.97;;
22814;SDS011;11574;51.058;13.712;2022-12-18T11:34:00;35.70;;;14.23;;
22814;SDS011;11574;51.058;13.712;2022-12-18T11:39:05;32.87;;;14.83;;
22814;SDS011;11574;51.058;13.712;2022-12-18T11:44:13;35.40;;;13.97;;
22814;SDS011;11574;51.058;13.712;2022-12-18T11:49:20;36.20;;;15.07;;
22814;SDS011;11574;51.058;13.712;2022-12-18T11:54:24;34.33;;;14.03;;
22814;SDS011;11574;51.058;13.712;2022-12-18T11:59:29;32.73;;;13.83;;
22814;SDS011;11574;51.058;13.712;2022-12-18T12:04:45;35.07;;;14.23;;
22814;SDS011;11574;51.058;13.712;2022-12-18T12:09:50;37.63;;;14.13;;
22814;SDS011;11574;51.058;13.712;2022-12-18T12:14:57;37.73;;;13.20;;
22814;SDS011;11574;51.058;13.712;2022-12-18T12:20:07;30.60;;;13.70;;
22814;SDS011;11574;51.058;13.712;2022-12-18T12:25:18;30.30;;;12.93;;
22814;SDS011;11574;51.058;13.712;2022-12-18T12:30:24;33.43;;;13.23;;
22814;SDS011;11574;51.058;13.712;2022-12-18T12:35:35;36.63;;;13.70;;
22814;SDS011;11574;51.058;13.712;2022-12-18T12:40:42;30.50;;;12.80;;
22814;SDS011;11574;51.058;13.712;2022-12-18T12:45:46;37.17;;;13.43;;
22814;SDS011;11574;51.058;13.712;2022-12-18T12:50:51;36.50;;;13.57;;
22814;SDS011;11574;51.058;13.712;2022-12-18T12:55:54;30.83;;;12.80;;
22814;SDS011;11574;51.058;13.712;2022-12-18T13:00:58;31.40;;;12.30;;
22814;SDS011;11574;51.058;13.712;2022-12-18T13:06:04;36.87;;;13.47;;
22814;SDS011;11574;51.058;13.712;2022-12-18T13:11:12;32.83;;;12.77;;
22814;SDS011;11574;51.058;13.712;2022-12-18T13:16:47;31.07;;;12.43;;
22814;SDS011;11574;51.058;13.712;2022-12-18T13:21:53;34.77;;;13.23;;
22814;SDS011;11574;51.058;13.712;2022-12-18T13:26:58;31.27;;;13.07;;
22814;SDS011;11574;51.058;13.712;2022-12-18T13:32:01;34.87;;;13.77;;
22814;SDS011;11574;51.058;13.712;2022-12-18T13:42:40;35.67;;;13.70;;
22814;SDS011;11574;51.058;13.712;2022-12-18T13:48:00;28.50;;;12.00;;
22814;SDS011;11574;51.058;13.712;2022-12-18T13:53:02;37.33;;;14.17;;
22814;SDS011;11574;51.058;13.712;2022-12-18T13:58:06;34.03;;;13.33;;
22814;SDS011;11574;51.058;13.712;2022-12-18T14:03:15;32.20;;;13.13;;
22814;SDS011;11574;51.058;13.712;2022-12-18T14:08:17;30.63;;;12.13;;
22814;SDS011;11574;51.058;13.712;2022-12-18T14:13:30;30.93;;;12.47;;
22814;SDS011;11574;51.058;13.712;2022-12-18T14:18:37;26.80;;;11.80;;
22814;SDS011;11574;51.058;13.712;2022-12-18T14:23:42;32.23;;;11.37;;
22814;SDS011;11574;51.058;13.712;2022-12-18T14:28:46;31.57;;;12.47;;
22814;SDS011;11574;51.058;13.712;2022-12-18T14:33:48;28.67;;;10.80;;
22814;SDS011;11574;51.058;13.712;2022-12-18T14:38:51;28.60;;;11.30;;
22814;SDS011;11574;51.058;13.712;2022-12-18T14:43:56;23.47;;;9.83;;
22814;SDS011;11574;51.058;13.712;2022-12-18T14:49:16;26.33;;;10.40;;
22814;SDS011;11574;51.058;13.712;2022-12-18T14:54:20;26.53;;;11.20;;
22814;SDS011;11574;51.058;13.712;2022-12-18T14:59:24;26.37;;;11.10;;
22814;SDS011;11574;51.058;13.712;2022-12-18T15:04:28;23.20;;;10.30;;
22814;SDS011;11574;51.058;13.712;2022-12-18T15:09:30;24.67;;;10.93;;
22814;SDS011;11574;51.058;13.712;2022-12-18T15:14:37;33.77;;;12.30;;
22814;SDS011;11574;51.058;13.712;2022-12-18T15:19:41;27.97;;;10.87;;
22814;SDS011;11574;51.058;13.712;2022-12-18T15:24:44;32.43;;;11.23;;
22814;SDS011;11574;51.058;13.712;2022-12-18T15:30:00;31.97;;;12.40;;
22814;SDS011;11574;51.058;13.712;2022-12-18T15:35:03;29.73;;;12.37;;
22814;SDS011;11574;51.058;13.712;2022-12-18T15:40:06;28.17;;;10.87;;
22814;SDS011;11574;51.058;13.712;2022-12-18T15:45:12;28.23;;;11.20;;
22814;SDS011;11574;51.058;13.712;2022-12-18T15:50:14;26.57;;;11.50;;
22814;SDS011;11574;51.058;13.712;2022-12-18T15:55:17;25.40;;;10.13;;
22814;SDS011;11574;51.058;13.712;2022-12-18T16:00:38;32.13;;;11.90;;
22814;SDS011;11574;51.058;13.712;2022-12-18T16:05:41;32.73;;;12.73;;
22814;SDS011;11574;51.058;13.712;2022-12-18T16:10:43;29.40;;;11.13;;
22814;SDS011;11574;51.058;13.712;2022-12-18T16:15:46;33.27;;;12.27;;
22814;SDS011;11574;51.058;13.712;2022-12-18T16:20:49;27.10;;;10.77;;
22814;SDS011;11574;51.058;13.712;2022-12-18T16:25:51;28.43;;;10.77;;
22814;SDS011;11574;51.058;13.712;2022-12-18T16:30:54;33.07;;;10.97;;
22814;SDS011;11574;51.058;13.712;2022-12-18T16:35:56;33.60;;;12.07;;
22814;SDS011;11574;51.058;13.712;2022-12-18T16:40:59;31.57;;;12.67;;
22814;SDS011;11574;51.058;13.712;2022-12-18T16:46:28;34.03;;;11.60;;
22814;SDS011;11574;51.058;13.712;2022-12-18T16:51:30;34.37;;;11.07;;
22814;SDS011;11574;51.058;13.712;2022-12-18T16:56:33;35.23;;;11.50;;
22814;SDS011;11574;51.058;13.712;2022-12-18T17:01:36;34.93;;;12.47;;
22814;SDS011;11574;51.058;13.712;2022-12-18T17:06:41;30.37;;;12.00;;
22814;SDS011;11574;51.058;13.712;2022-12-18T17:11:43;26.13;;;9.93;;
22814;SDS011;11574;51.058;13.712;2022-12-18T17:16:47;30.67;;;11.20;;
22814;SDS011;11574;51.058;13.712;2022-12-18T17:21:49;37.17;;;12.53;;
22814;SDS011;11574;51.058;13.712;2022-12-18T17:26:52;30.97;;;11.17;;
22814;SDS011;11574;51.058;13.712;2022-12-18T17:31:55;35.87;;;12.40;;
22814;SDS011;11574;51.058;13.712;2022-12-18T17:36:57;27.47;;;11.47;;
22814;SDS011;11574;51.058;13.712;2022-12-18T17:41:59;27.83;;;11.50;;
22814;SDS011;11574;51.058;13.712;2022-12-18T17:47:03;32.37;;;11.07;;
22814;SDS011;11574;51.058;13.712;2022-12-18T17:52:05;28.60;;;12.30;;
22814;SDS011;11574;51.058;13.712;2022-12-18T17:57:08;24.23;;;10.43;;
22814;SDS011;11574;51.058;13.712;2022-12-18T18:02:12;33.03;;;11.07;;
22814;SDS011;11574;51.058;13.712;2022-12-18T18:07:14;24.13;;;11.40;;
22814;SDS011;11574;51.058;13.712;2022-12-18T18:12:16;27.23;;;10.97;;
22814;SDS011;11574;51.058;13.712;2022-12-18T18:17:37;30.17;;;12.10;;
22814;SDS011;11574;51.058;13.712;2022-12-18T18:22:40;24.60;;;10.97;;
22814;SDS011;11574;51.058;13.712;2022-12-18T18:27:42;31.30;;;12.70;;
22814;SDS011;11574;51.058;13.712;2022-12-18T18:32:45;27.53;;;10.33;;
22814;SDS011;11574;51.058;13.712;2022-12-18T18:37:48;29.00;;;11.33;;
22814;SDS011;11574;51.058;13.712;2022-12-18T18:42:50;26.77;;;10.13;;
22814;SDS011;11574;51.058;13.712;2022-12-18T18:47:54;29.47;;;10.83;;
22814;SDS011;11574;51.058;13.712;2022-12-18T18:52:57;30.37;;;11.13;;
22814;SDS011;11574;51.058;13.712;2022-12-18T18:58:00;24.83;;;10.37;;
22814;SDS011;11574;51.058;13.712;2022-12-18T19:03:03;27.47;;;10.43;;
22814;SDS011;11574;51.058;13.712;2022-12-18T19:08:05;17.50;;;8.17;;
22814;SDS011;11574;51.058;13.712;2022-12-18T19:13:08;24.70;;;9.63;;
22814;SDS011;11574;51.058;13.712;2022-12-18T19:18:30;30.70;;;10.70;;
22814;SDS011;11574;51.058;13.712;2022-12-18T19:23:32;25.43;;;10.13;;
22814;SDS011;11574;51.058;13.712;2022-12-18T19:28:34;22.43;;;9.63;;
22814;SDS011;11574;51.058;13.712;2022-12-18T19:33:38;28.77;;;10.80;;
22814;SDS011;11574;51.058;13.712;2022-12-18T19:38:41;26.43;;;10.53;;
22814;SDS011;11574;51.058;13.712;2022-12-18T19:43:43;29.03;;;11.30;;
22814;SDS011;11574;51.058;13.712;2022-12-18T19:48:50;24.33;;;11.27;;
22814;SDS011;11574;51.058;13.712;2022-12-18T19:53:52;28.67;;;10.37;;
22814;SDS011;11574;51.058;13.712;2022-12-18T19:58:55;28.83;;;10.20;;
22814;SDS011;11574;51.058;13.712;2022-12-18T20:03:59;34.10;;;12.27;;
22814;SDS011;11574;51.058;13.712;2022-12-18T20:09:03;25.03;;;10.60;;
22814;SDS011;11574;51.058;13.712;2022-12-18T20:14:05;21.03;;;9.77;;
22814;SDS011;11574;51.058;13.712;2022-12-18T20:19:09;27.63;;;11.23;;
22814;SDS011;11574;51.058;13.712;2022-12-18T20:24:13;21.40;;;9.67;;
22814;SDS011;11574;51.058;13.712;2022-12-18T20:29:15;26.13;;;10.73;;
22814;SDS011;11574;51.058;13.712;2022-12-18T20:34:20;22.53;;;9.17;;
22814;SDS011;11574;51.058;13.712;2022-12-18T20:39:22;24.00;;;10.00;;
22814;SDS011;11574;51.058;13.712;2022-12-18T20:44:25;26.30;;;10.37;;
22814;SDS011;11574;51.058;13.712;2022-12-18T20:49:29;29.77;;;11.47;;
22814;SDS011;11574;51.058;13.712;2022-12-18T20:54:31;29.20;;;11.13;;
22814;SDS011;11574;51.058;13.712;2022-12-18T20:59:33;26.93;;;10.00;;
22814;SDS011;11574;51.058;13.712;2022-12-18T21:04:36;26.63;;;10.87;;
22814;SDS011;11574;51.058;13.712;2022-12-18T21:09:39;29.30;;;11.07;;
22814;SDS011;11574;51.058;13.712;2022-12-18T21:14:41;30.10;;;11.60;;
22814;SDS011;11574;51.058;13.712;2022-12-18T21:19:45;23.67;;;10.37;;
22814;SDS011;11574;51.058;13.712;2022-12-18T21:24:47;28.37;;;10.93;;
22814;SDS011;11574;51.058;13.712;2022-12-18T21:29:49;32.27;;;11.77;;
22814;SDS011;11574;51.058;13.712;2022-12-18T21:34:53;19.70;;;10.30;;
22814;SDS011;11574;51.058;13.712;2022-12-18T21:39:55;26.93;;;11.17;;
22814;SDS011;11574;51.058;13.712;2022-12-18T21:44:57;25.67;;;9.80;;
22814;SDS011;11574;51.058;13.712;2022-12-18T21:50:01;34.23;;;13.13;;
22814;SDS011;11574;51.058;13.712;2022-12-18T21:55:03;29.53;;;11.43;;
22814;SDS011;11574;51.058;13.712;2022-12-18T22:00:06;28.63;;;11.50;;
22814;SDS011;11574;51.058;13.712;2022-12-18T22:05:12;31.80;;;11.27;;
22814;SDS011;11574;51.058;13.712;2022-12-18T22:10:14;25.87;;;10.53;;
22814;SDS011;11574;51.058;13.712;2022-12-18T22:15:17;30.37;;;11.27;;
22814;SDS011;11574;51.058;13.712;2022-12-18T22:20:20;29.23;;;11.67;;
22814;SDS011;11574;51.058;13.712;2022-12-18T22:25:22;38.97;;;13.23;;
22814;SDS011;11574;51.058;13.712;2022-12-18T22:30:24;39.90;;;14.03;;
22814;SDS011;11574;51.058;13.712;2022-12-18T22:35:28;38.57;;;13.90;;
22814;SDS011;11574;51.058;13.712;2022-12-18T22:40:30;34.17;;;13.80;;
22814;SDS011;11574;51.058;13.712;2022-12-18T22:45:32;33.50;;;14.20;;
22814;SDS011;11574;51.058;13.712;2022-12-18T22:50:36;31.97;;;12.77;;
22814;SDS011;11574;51.058;13.712;2022-12-18T22:55:38;40.23;;;14.93;;
22814;SDS011;11574;51.058;13.712;2022-12-18T23:00:40;32.90;;;13.03;;
22814;SDS011;11574;51.058;13.712;2022-12-18T23:05:44;30.60;;;13.80;;
22814;SDS011;11574;51.058;13.712;2022-12-18T23:10:46;32.47;;;13.90;;
22814;SDS011;11574;51.058;13.712;2022-12-18T23:15:49;28.87;;;12.87;;
22814;SDS011;11574;51.058;13.712;2022-12-18T23:20:54;35.87;;;13.73;;
22814;SDS011;11574;51.058;13.712;2022-12-18T23:25:59;35.20;;;14.57;;
22814;SDS011;11574;51.058;13.712;2022-12-18T23:31:01;33.23;;;14.47;;
22814;SDS011;11574;51.058;13.712;2022-12-18T23:36:05;40.07;;;15.77;;
22814;SDS011;11574;51.058;13.712;2022-12-18T23:41:08;39.50;;;15.67;;
22814;SDS011;11574;51.058;13.712;2022-12-18T23:46:11;33.83;;;14.57;;
22814;SDS011;11574;51.058;13.712;2022-12-18T23:51:15;41.23;;;14.23;;
22814;SDS011;11574;51.058;13.712;2022-12-18T23:56:17;31.93;;;13.73;;
